sensor_id;sensor_type;location;lat;lon;timestamp;temperature;humidity
14577;DHT22;7375;46.072;14.470;2022-12-10T00:02:10;27.30;42.50
14577;DHT22;7375;46.072;14.470;2022-12-10T00:04:37;27.30;42.40
14577;DHT22;7375;46.072;14.470;2022-12-10T00:07:04;27.30;42.30
14577;DHT22;7375;46.072;14.470;2022-12-10T00:09:30;27.30;42.40
14577;DHT22;7375;46.072;14.470;2022-12-10T00:11:58;27.30;42.50
14577;DHT22;7375;46.072;14.470;2022-12-10T00:14:26;27.20;42.60
14577;DHT22;7375;46.072;14.470;2022-12-10T00:16:52;27.20;42.40
14577;DHT22;7375;46.072;14.470;2022-12-10T00:19:19;27.30;42.30
14577;DHT22;7375;46.072;14.470;2022-12-10T00:21:46;27.40;42.20
14577;DHT22;7375;46.072;14.470;2022-12-10T00:24:13;27.30;42.30
14577;DHT22;7375;46.072;14.470;2022-12-10T00:26:39;27.20;42.40
14577;DHT22;7375;46.072;14.470;2022-12-10T00:29:07;27.20;42.50
14577;DHT22;7375;46.072;14.470;2022-12-10T00:31:36;27.20;42.60
14577;DHT22;7375;46.072;14.470;2022-12-10T00:34:04;27.20;42.60
14577;DHT22;7375;46.072;14.470;2022-12-10T00:36:31;27.20;42.60
14577;DHT22;7375;46.072;14.470;2022-12-10T00:38:58;27.20;42.60
14577;DHT22;7375;46.072;14.470;2022-12-10T00:41:25;27.10;42.80
14577;DHT22;7375;46.072;14.470;2022-12-10T00:43:51;27.10;42.80
14577;DHT22;7375;46.072;14.470;2022-12-10T00:46:18;27.20;42.80
14577;DHT22;7375;46.072;14.470;2022-12-10T00:48:46;27.20;42.80
14577;DHT22;7375;46.072;14.470;2022-12-10T00:51:14;27.10;42.70
14577;DHT22;7375;46.072;14.470;2022-12-10T00:53:41;27.20;42.80
14577;DHT22;7375;46.072;14.470;2022-12-10T00:56:09;27.10;42.80
14577;DHT22;7375;46.072;14.470;2022-12-10T00:58:37;27.10;43.00
14577;DHT22;7375;46.072;14.470;2022-12-10T01:01:07;27.10;42.80
14577;DHT22;7375;46.072;14.470;2022-12-10T01:03:34;27.10;43.00
14577;DHT22;7375;46.072;14.470;2022-12-10T01:06:08;27.20;42.80
14577;DHT22;7375;46.072;14.470;2022-12-10T01:08:36;27.20;42.80
14577;DHT22;7375;46.072;14.470;2022-12-10T01:11:03;27.10;42.80
14577;DHT22;7375;46.072;14.470;2022-12-10T01:13:30;27.10;42.90
14577;DHT22;7375;46.072;14.470;2022-12-10T01:15:56;27.00;42.90
14577;DHT22;7375;46.072;14.470;2022-12-10T01:18:25;27.00;42.90
14577;DHT22;7375;46.072;14.470;2022-12-10T01:20:52;27.10;42.70
14577;DHT22;7375;46.072;14.470;2022-12-10T01:23:20;27.10;42.90
14577;DHT22;7375;46.072;14.470;2022-12-10T01:25:47;27.10;42.90
14577;DHT22;7375;46.072;14.470;2022-12-10T01:28:14;27.00;42.80
14577;DHT22;7375;46.072;14.470;2022-12-10T01:30:40;27.10;42.90
14577;DHT22;7375;46.072;14.470;2022-12-10T01:33:07;27.00;42.80
14577;DHT22;7375;46.072;14.470;2022-12-10T01:35:35;27.00;42.90
14577;DHT22;7375;46.072;14.470;2022-12-10T01:38:02;27.00;42.80
14577;DHT22;7375;46.072;14.470;2022-12-10T01:40:30;27.00;43.10
14577;DHT22;7375;46.072;14.470;2022-12-10T01:42:56;27.00;42.90
14577;DHT22;7375;46.072;14.470;2022-12-10T01:45:23;27.10;42.90
14577;DHT22;7375;46.072;14.470;2022-12-10T01:47:50;27.10;42.90
14577;DHT22;7375;46.072;14.470;2022-12-10T01:50:17;27.00;42.80
14577;DHT22;7375;46.072;14.470;2022-12-10T01:52:43;27.10;42.90
14577;DHT22;7375;46.072;14.470;2022-12-10T01:57:56;27.00;43.10
14577;DHT22;7375;46.072;14.470;2022-12-10T02:00:23;27.00;43.10
14577;DHT22;7375;46.072;14.470;2022-12-10T02:02:51;27.00;43.00
14577;DHT22;7375;46.072;14.470;2022-12-10T02:05:22;27.00;43.10
14577;DHT22;7375;46.072;14.470;2022-12-10T02:07:57;27.00;43.10
14577;DHT22;7375;46.072;14.470;2022-12-10T02:10:29;27.00;43.00
14577;DHT22;7375;46.072;14.470;2022-12-10T02:13:00;27.00;43.00
14577;DHT22;7375;46.072;14.470;2022-12-10T02:15:30;27.00;43.00
14577;DHT22;7375;46.072;14.470;2022-12-10T02:17:58;27.00;43.00
14577;DHT22;7375;46.072;14.470;2022-12-10T02:20:29;27.00;42.80
14577;DHT22;7375;46.072;14.470;2022-12-10T02:22:57;26.90;43.00
14577;DHT22;7375;46.072;14.470;2022-12-10T02:25:26;27.00;42.90
14577;DHT22;7375;46.072;14.470;2022-12-10T02:28:01;27.00;42.90
14577;DHT22;7375;46.072;14.470;2022-12-10T02:30:31;27.00;42.90
14577;DHT22;7375;46.072;14.470;2022-12-10T02:32:59;27.00;42.90
14577;DHT22;7375;46.072;14.470;2022-12-10T02:35:28;27.00;43.40
14577;DHT22;7375;46.072;14.470;2022-12-10T02:37:57;27.10;42.90
14577;DHT22;7375;46.072;14.470;2022-12-10T02:40:27;27.10;42.70
14577;DHT22;7375;46.072;14.470;2022-12-10T02:42:57;27.00;43.00
14577;DHT22;7375;46.072;14.470;2022-12-10T02:45:24;27.00;43.00
14577;DHT22;7375;46.072;14.470;2022-12-10T02:47:54;27.00;43.00
14577;DHT22;7375;46.072;14.470;2022-12-10T02:53:12;26.90;43.00
14577;DHT22;7375;46.072;14.470;2022-12-10T02:55:47;26.90;42.80
14577;DHT22;7375;46.072;14.470;2022-12-10T02:58:15;26.90;42.90
14577;DHT22;7375;46.072;14.470;2022-12-10T03:00:47;26.90;42.60
14577;DHT22;7375;46.072;14.470;2022-12-10T03:03:21;26.90;42.60
14577;DHT22;7375;46.072;14.470;2022-12-10T03:05:53;26.90;42.50
14577;DHT22;7375;46.072;14.470;2022-12-10T03:08:23;26.80;42.40
14577;DHT22;7375;46.072;14.470;2022-12-10T03:10:52;26.80;42.50
14577;DHT22;7375;46.072;14.470;2022-12-10T03:13:21;26.80;42.60
14577;DHT22;7375;46.072;14.470;2022-12-10T03:15:49;26.80;42.40
14577;DHT22;7375;46.072;14.470;2022-12-10T03:18:17;26.70;42.40
14577;DHT22;7375;46.072;14.470;2022-12-10T03:20:47;26.70;42.30
14577;DHT22;7375;46.072;14.470;2022-12-10T03:23:14;26.80;42.20
14577;DHT22;7375;46.072;14.470;2022-12-10T03:25:41;26.80;42.30
14577;DHT22;7375;46.072;14.470;2022-12-10T03:28:08;26.80;42.10
14577;DHT22;7375;46.072;14.470;2022-12-10T03:30:35;26.80;42.20
14577;DHT22;7375;46.072;14.470;2022-12-10T03:33:03;26.70;42.20
14577;DHT22;7375;46.072;14.470;2022-12-10T03:35:30;26.70;42.10
14577;DHT22;7375;46.072;14.470;2022-12-10T03:37:59;26.80;42.20
14577;DHT22;7375;46.072;14.470;2022-12-10T03:40:26;26.70;42.20
14577;DHT22;7375;46.072;14.470;2022-12-10T03:42:52;26.70;42.20
14577;DHT22;7375;46.072;14.470;2022-12-10T03:45:19;26.70;42.30
14577;DHT22;7375;46.072;14.470;2022-12-10T03:47:46;26.60;42.20
14577;DHT22;7375;46.072;14.470;2022-12-10T03:50:14;26.70;42.10
14577;DHT22;7375;46.072;14.470;2022-12-10T03:52:41;26.80;42.10
14577;DHT22;7375;46.072;14.470;2022-12-10T03:55:09;26.80;42.00
14577;DHT22;7375;46.072;14.470;2022-12-10T03:57:36;26.80;42.00
14577;DHT22;7375;46.072;14.470;2022-12-10T04:00:03;26.90;42.00
14577;DHT22;7375;46.072;14.470;2022-12-10T04:02:30;26.90;42.00
14577;DHT22;7375;46.072;14.470;2022-12-10T04:04:57;26.90;42.20
14577;DHT22;7375;46.072;14.470;2022-12-10T04:07:24;26.90;42.10
14577;DHT22;7375;46.072;14.470;2022-12-10T04:09:50;27.00;42.00
14577;DHT22;7375;46.072;14.470;2022-12-10T04:12:18;26.90;42.10
14577;DHT22;7375;46.072;14.470;2022-12-10T04:14:45;26.90;41.90
14577;DHT22;7375;46.072;14.470;2022-12-10T04:17:40;26.80;42.00
14577;DHT22;7375;46.072;14.470;2022-12-10T04:20:07;26.80;42.10
14577;DHT22;7375;46.072;14.470;2022-12-10T04:22:55;26.80;42.10
14577;DHT22;7375;46.072;14.470;2022-12-10T04:25:39;27.00;41.90
14577;DHT22;7375;46.072;14.470;2022-12-10T04:28:24;27.50;41.00
14577;DHT22;7375;46.072;14.470;2022-12-10T04:30:51;27.80;40.40
14577;DHT22;7375;46.072;14.470;2022-12-10T04:33:18;28.10;39.80
14577;DHT22;7375;46.072;14.470;2022-12-10T04:35:45;28.30;39.50
14577;DHT22;7375;46.072;14.470;2022-12-10T04:38:12;28.50;39.10
14577;DHT22;7375;46.072;14.470;2022-12-10T04:40:38;28.80;38.60
14577;DHT22;7375;46.072;14.470;2022-12-10T04:43:05;29.00;38.20
14577;DHT22;7375;46.072;14.470;2022-12-10T04:45:34;29.30;37.80
14577;DHT22;7375;46.072;14.470;2022-12-10T04:48:01;29.50;37.40
14577;DHT22;7375;46.072;14.470;2022-12-10T04:50:28;29.70;37.10
14577;DHT22;7375;46.072;14.470;2022-12-10T04:52:55;29.90;36.90
14577;DHT22;7375;46.072;14.470;2022-12-10T04:55:21;30.00;36.50
14577;DHT22;7375;46.072;14.470;2022-12-10T04:57:48;30.10;36.50
14577;DHT22;7375;46.072;14.470;2022-12-10T05:00:15;30.10;36.50
14577;DHT22;7375;46.072;14.470;2022-12-10T05:02:43;30.00;36.60
14577;DHT22;7375;46.072;14.470;2022-12-10T05:05:10;30.00;36.60
14577;DHT22;7375;46.072;14.470;2022-12-10T05:07:37;29.90;36.70
14577;DHT22;7375;46.072;14.470;2022-12-10T05:10:04;29.80;36.70
14577;DHT22;7375;46.072;14.470;2022-12-10T05:12:31;29.80;36.90
14577;DHT22;7375;46.072;14.470;2022-12-10T05:14:58;29.80;36.80
14577;DHT22;7375;46.072;14.470;2022-12-10T05:17:25;29.90;36.60
14577;DHT22;7375;46.072;14.470;2022-12-10T05:19:53;29.90;36.70
14577;DHT22;7375;46.072;14.470;2022-12-10T05:22:19;30.00;36.60
14577;DHT22;7375;46.072;14.470;2022-12-10T05:25:04;29.90;36.60
14577;DHT22;7375;46.072;14.470;2022-12-10T05:27:31;29.90;36.60
14577;DHT22;7375;46.072;14.470;2022-12-10T05:29:58;29.90;36.50
14577;DHT22;7375;46.072;14.470;2022-12-10T05:32:24;29.90;36.60
14577;DHT22;7375;46.072;14.470;2022-12-10T05:34:53;29.90;36.60
14577;DHT22;7375;46.072;14.470;2022-12-10T05:37:19;29.80;36.70
14577;DHT22;7375;46.072;14.470;2022-12-10T05:39:47;29.90;36.70
14577;DHT22;7375;46.072;14.470;2022-12-10T05:42:13;30.00;36.50
14577;DHT22;7375;46.072;14.470;2022-12-10T05:44:40;30.00;36.60
14577;DHT22;7375;46.072;14.470;2022-12-10T05:47:07;30.00;36.50
14577;DHT22;7375;46.072;14.470;2022-12-10T05:49:33;30.00;36.50
14577;DHT22;7375;46.072;14.470;2022-12-10T05:52:02;29.90;36.50
14577;DHT22;7375;46.072;14.470;2022-12-10T05:54:28;29.90;36.50
14577;DHT22;7375;46.072;14.470;2022-12-10T05:56:55;29.90;36.50
14577;DHT22;7375;46.072;14.470;2022-12-10T05:59:22;30.10;36.40
14577;DHT22;7375;46.072;14.470;2022-12-10T06:01:48;30.00;36.50
14577;DHT22;7375;46.072;14.470;2022-12-10T06:04:15;30.20;36.40
14577;DHT22;7375;46.072;14.470;2022-12-10T06:06:42;30.20;36.30
14577;DHT22;7375;46.072;14.470;2022-12-10T06:09:12;30.20;36.40
14577;DHT22;7375;46.072;14.470;2022-12-10T06:11:39;30.00;36.50
14577;DHT22;7375;46.072;14.470;2022-12-10T06:14:05;30.00;36.40
14577;DHT22;7375;46.072;14.470;2022-12-10T06:16:32;30.10;36.40
14577;DHT22;7375;46.072;14.470;2022-12-10T06:18:59;30.20;36.40
14577;DHT22;7375;46.072;14.470;2022-12-10T06:21:25;30.20;36.20
14577;DHT22;7375;46.072;14.470;2022-12-10T06:23:52;30.20;36.20
14577;DHT22;7375;46.072;14.470;2022-12-10T06:26:21;30.20;36.10
14577;DHT22;7375;46.072;14.470;2022-12-10T06:28:48;30.20;36.10
14577;DHT22;7375;46.072;14.470;2022-12-10T06:31:15;30.20;36.20
14577;DHT22;7375;46.072;14.470;2022-12-10T06:33:42;30.20;36.10
14577;DHT22;7375;46.072;14.470;2022-12-10T06:36:10;30.20;36.00
14577;DHT22;7375;46.072;14.470;2022-12-10T06:38:37;30.20;36.20
14577;DHT22;7375;46.072;14.470;2022-12-10T06:41:04;30.20;36.00
14577;DHT22;7375;46.072;14.470;2022-12-10T06:43:33;30.20;36.10
14577;DHT22;7375;46.072;14.470;2022-12-10T06:46:03;30.30;36.00
14577;DHT22;7375;46.072;14.470;2022-12-10T06:48:30;30.20;36.20
14577;DHT22;7375;46.072;14.470;2022-12-10T06:50:57;30.20;36.00
14577;DHT22;7375;46.072;14.470;2022-12-10T06:53:23;30.40;35.90
14577;DHT22;7375;46.072;14.470;2022-12-10T06:55:50;30.50;35.70
14577;DHT22;7375;46.072;14.470;2022-12-10T06:58:17;30.50;35.70
14577;DHT22;7375;46.072;14.470;2022-12-10T07:00:45;30.70;35.50
14577;DHT22;7375;46.072;14.470;2022-12-10T07:03:11;30.60;35.70
14577;DHT22;7375;46.072;14.470;2022-12-10T07:05:38;30.50;35.60
14577;DHT22;7375;46.072;14.470;2022-12-10T07:08:05;30.60;35.70
14577;DHT22;7375;46.072;14.470;2022-12-10T07:10:32;30.80;35.50
14577;DHT22;7375;46.072;14.470;2022-12-10T07:12:59;30.70;35.60
14577;DHT22;7375;46.072;14.470;2022-12-10T07:15:25;30.60;35.70
14577;DHT22;7375;46.072;14.470;2022-12-10T07:17:55;30.70;35.50
14577;DHT22;7375;46.072;14.470;2022-12-10T07:20:21;30.70;35.50
14577;DHT22;7375;46.072;14.470;2022-12-10T07:22:48;30.70;35.60
14577;DHT22;7375;46.072;14.470;2022-12-10T07:25:15;30.70;35.70
14577;DHT22;7375;46.072;14.470;2022-12-10T07:27:41;30.70;36.00
14577;DHT22;7375;46.072;14.470;2022-12-10T07:30:09;30.60;35.60
14577;DHT22;7375;46.072;14.470;2022-12-10T07:32:35;29.80;34.70
14577;DHT22;7375;46.072;14.470;2022-12-10T07:35:04;30.10;34.30
14577;DHT22;7375;46.072;14.470;2022-12-10T07:37:31;30.60;34.30
14577;DHT22;7375;46.072;14.470;2022-12-10T07:39:57;31.10;34.20
14577;DHT22;7375;46.072;14.470;2022-12-10T07:42:24;31.20;34.50
14577;DHT22;7375;46.072;14.470;2022-12-10T07:44:51;31.30;34.40
14577;DHT22;7375;46.072;14.470;2022-12-10T07:47:18;31.40;34.40
14577;DHT22;7375;46.072;14.470;2022-12-10T07:49:45;31.40;34.40
14577;DHT22;7375;46.072;14.470;2022-12-10T07:52:13;31.20;34.80
14577;DHT22;7375;46.072;14.470;2022-12-10T07:54:39;31.20;35.00
14577;DHT22;7375;46.072;14.470;2022-12-10T07:57:06;31.20;34.80
14577;DHT22;7375;46.072;14.470;2022-12-10T07:59:37;31.20;34.80
14577;DHT22;7375;46.072;14.470;2022-12-10T08:02:04;31.00;35.30
14577;DHT22;7375;46.072;14.470;2022-12-10T08:04:30;30.90;35.70
14577;DHT22;7375;46.072;14.470;2022-12-10T08:06:57;30.80;36.10
14577;DHT22;7375;46.072;14.470;2022-12-10T08:09:25;30.70;36.20
14577;DHT22;7375;46.072;14.470;2022-12-10T08:11:52;30.80;35.90
14577;DHT22;7375;46.072;14.470;2022-12-10T08:14:19;30.80;36.00
14577;DHT22;7375;46.072;14.470;2022-12-10T08:16:46;30.90;35.70
14577;DHT22;7375;46.072;14.470;2022-12-10T08:19:12;30.90;35.60
14577;DHT22;7375;46.072;14.470;2022-12-10T08:21:39;30.90;35.80
14577;DHT22;7375;46.072;14.470;2022-12-10T08:24:06;30.90;35.90
14577;DHT22;7375;46.072;14.470;2022-12-10T08:26:34;30.90;35.70
14577;DHT22;7375;46.072;14.470;2022-12-10T08:29:01;30.90;35.90
14577;DHT22;7375;46.072;14.470;2022-12-10T08:31:28;31.10;35.90
14577;DHT22;7375;46.072;14.470;2022-12-10T08:33:55;31.20;35.50
14577;DHT22;7375;46.072;14.470;2022-12-10T08:36:22;31.10;35.20
14577;DHT22;7375;46.072;14.470;2022-12-10T08:38:49;30.90;35.20
14577;DHT22;7375;46.072;14.470;2022-12-10T08:41:17;30.80;35.50
14577;DHT22;7375;46.072;14.470;2022-12-10T08:43:50;30.70;35.90
14577;DHT22;7375;46.072;14.470;2022-12-10T08:46:17;30.60;35.90
14577;DHT22;7375;46.072;14.470;2022-12-10T08:48:45;30.70;35.90
14577;DHT22;7375;46.072;14.470;2022-12-10T08:51:13;30.70;35.90
14577;DHT22;7375;46.072;14.470;2022-12-10T08:53:40;30.70;35.80
14577;DHT22;7375;46.072;14.470;2022-12-10T08:56:07;30.70;35.60
14577;DHT22;7375;46.072;14.470;2022-12-10T08:58:34;30.80;35.60
14577;DHT22;7375;46.072;14.470;2022-12-10T09:01:06;30.80;35.50
14577;DHT22;7375;46.072;14.470;2022-12-10T09:03:36;30.80;35.50
14577;DHT22;7375;46.072;14.470;2022-12-10T09:06:03;30.80;35.40
14577;DHT22;7375;46.072;14.470;2022-12-10T09:08:30;30.80;35.50
14577;DHT22;7375;46.072;14.470;2022-12-10T09:10:57;30.80;35.40
14577;DHT22;7375;46.072;14.470;2022-12-10T09:13:23;30.70;35.60
14577;DHT22;7375;46.072;14.470;2022-12-10T09:15:50;30.60;35.70
14577;DHT22;7375;46.072;14.470;2022-12-10T09:18:19;30.60;35.70
14577;DHT22;7375;46.072;14.470;2022-12-10T09:20:45;30.80;35.40
14577;DHT22;7375;46.072;14.470;2022-12-10T09:23:12;31.00;35.20
14577;DHT22;7375;46.072;14.470;2022-12-10T09:25:39;31.10;35.10
14577;DHT22;7375;46.072;14.470;2022-12-10T09:28:05;31.00;35.00
14577;DHT22;7375;46.072;14.470;2022-12-10T09:30:32;31.00;35.10
14577;DHT22;7375;46.072;14.470;2022-12-10T09:32:59;31.10;35.00
14577;DHT22;7375;46.072;14.470;2022-12-10T09:35:27;31.10;34.80
14577;DHT22;7375;46.072;14.470;2022-12-10T09:37:54;31.20;34.70
14577;DHT22;7375;46.072;14.470;2022-12-10T09:40:22;31.40;34.50
14577;DHT22;7375;46.072;14.470;2022-12-10T09:42:54;31.30;34.60
14577;DHT22;7375;46.072;14.470;2022-12-10T09:45:24;31.40;34.50
14577;DHT22;7375;46.072;14.470;2022-12-10T09:47:54;31.40;34.40
14577;DHT22;7375;46.072;14.470;2022-12-10T09:50:23;31.40;34.30
14577;DHT22;7375;46.072;14.470;2022-12-10T09:52:53;31.50;34.00
14577;DHT22;7375;46.072;14.470;2022-12-10T09:55:26;31.50;33.90
14577;DHT22;7375;46.072;14.470;2022-12-10T09:57:56;31.50;33.90
14577;DHT22;7375;46.072;14.470;2022-12-10T10:00:23;31.50;33.80
14577;DHT22;7375;46.072;14.470;2022-12-10T10:02:53;31.40;34.00
14577;DHT22;7375;46.072;14.470;2022-12-10T10:05:21;31.40;34.00
14577;DHT22;7375;46.072;14.470;2022-12-10T10:07:49;31.40;34.00
14577;DHT22;7375;46.072;14.470;2022-12-10T10:10:21;31.40;33.90
14577;DHT22;7375;46.072;14.470;2022-12-10T10:12:48;31.50;33.90
14577;DHT22;7375;46.072;14.470;2022-12-10T10:15:18;31.60;33.80
14577;DHT22;7375;46.072;14.470;2022-12-10T10:17:47;31.30;34.10
14577;DHT22;7375;46.072;14.470;2022-12-10T10:20:14;31.40;34.10
14577;DHT22;7375;46.072;14.470;2022-12-10T10:22:41;31.40;34.70
14577;DHT22;7375;46.072;14.470;2022-12-10T10:25:12;31.30;34.10
14577;DHT22;7375;46.072;14.470;2022-12-10T10:27:41;31.40;33.90
14577;DHT22;7375;46.072;14.470;2022-12-10T10:30:12;31.50;34.00
14577;DHT22;7375;46.072;14.470;2022-12-10T10:32:45;31.30;34.10
14577;DHT22;7375;46.072;14.470;2022-12-10T10:35:21;31.40;34.00
14577;DHT22;7375;46.072;14.470;2022-12-10T10:37:49;31.50;33.90
14577;DHT22;7375;46.072;14.470;2022-12-10T10:40:21;31.40;34.10
14577;DHT22;7375;46.072;14.470;2022-12-10T10:42:51;31.50;33.90
14577;DHT22;7375;46.072;14.470;2022-12-10T10:45:32;31.50;33.80
14577;DHT22;7375;46.072;14.470;2022-12-10T10:48:03;31.50;33.70
14577;DHT22;7375;46.072;14.470;2022-12-10T10:50:30;31.50;33.90
14577;DHT22;7375;46.072;14.470;2022-12-10T10:52:56;31.40;34.00
14577;DHT22;7375;46.072;14.470;2022-12-10T10:55:30;31.40;34.00
14577;DHT22;7375;46.072;14.470;2022-12-10T10:57:58;31.30;34.00
14577;DHT22;7375;46.072;14.470;2022-12-10T11:00:25;31.20;34.20
14577;DHT22;7375;46.072;14.470;2022-12-10T11:02:52;31.20;34.20
14577;DHT22;7375;46.072;14.470;2022-12-10T11:05:20;31.10;34.30
14577;DHT22;7375;46.072;14.470;2022-12-10T11:07:49;31.10;34.40
14577;DHT22;7375;46.072;14.470;2022-12-10T11:10:24;30.90;34.60
14577;DHT22;7375;46.072;14.470;2022-12-10T11:12:54;31.00;34.50
14577;DHT22;7375;46.072;14.470;2022-12-10T11:15:30;30.90;34.70
14577;DHT22;7375;46.072;14.470;2022-12-10T11:17:56;30.90;34.60
14577;DHT22;7375;46.072;14.470;2022-12-10T11:20:24;31.00;34.50
14577;DHT22;7375;46.072;14.470;2022-12-10T11:22:53;31.10;34.30
14577;DHT22;7375;46.072;14.470;2022-12-10T11:25:30;31.10;34.40
14577;DHT22;7375;46.072;14.470;2022-12-10T11:28:01;31.10;34.30
14577;DHT22;7375;46.072;14.470;2022-12-10T11:30:30;31.20;34.20
14577;DHT22;7375;46.072;14.470;2022-12-10T11:33:04;31.20;34.20
14577;DHT22;7375;46.072;14.470;2022-12-10T11:35:36;31.30;34.00
14577;DHT22;7375;46.072;14.470;2022-12-10T11:38:07;31.20;34.20
14577;DHT22;7375;46.072;14.470;2022-12-10T11:40:38;31.10;34.20
14577;DHT22;7375;46.072;14.470;2022-12-10T11:43:14;31.00;34.30
14577;DHT22;7375;46.072;14.470;2022-12-10T11:45:47;30.90;34.50
14577;DHT22;7375;46.072;14.470;2022-12-10T11:48:22;30.90;34.40
14577;DHT22;7375;46.072;14.470;2022-12-10T11:50:56;30.80;34.60
14577;DHT22;7375;46.072;14.470;2022-12-10T11:53:33;30.90;34.50
14577;DHT22;7375;46.072;14.470;2022-12-10T11:56:05;30.80;34.60
14577;DHT22;7375;46.072;14.470;2022-12-10T11:58:39;30.80;34.60
14577;DHT22;7375;46.072;14.470;2022-12-10T12:01:12;30.80;34.60
14577;DHT22;7375;46.072;14.470;2022-12-10T12:03:51;30.80;34.70
14577;DHT22;7375;46.072;14.470;2022-12-10T12:06:26;30.80;34.60
14577;DHT22;7375;46.072;14.470;2022-12-10T12:08:55;30.70;34.70
14577;DHT22;7375;46.072;14.470;2022-12-10T12:11:30;30.60;34.90
14577;DHT22;7375;46.072;14.470;2022-12-10T12:14:04;30.70;34.70
14577;DHT22;7375;46.072;14.470;2022-12-10T12:16:37;30.80;34.70
14577;DHT22;7375;46.072;14.470;2022-12-10T12:19:09;30.70;34.80
14577;DHT22;7375;46.072;14.470;2022-12-10T12:21:37;30.80;34.70
14577;DHT22;7375;46.072;14.470;2022-12-10T12:24:06;30.80;34.60
14577;DHT22;7375;46.072;14.470;2022-12-10T12:26:37;30.80;34.70
14577;DHT22;7375;46.072;14.470;2022-12-10T12:29:11;30.70;34.70
14577;DHT22;7375;46.072;14.470;2022-12-10T12:31:41;30.80;34.60
14577;DHT22;7375;46.072;14.470;2022-12-10T12:34:12;30.80;34.50
14577;DHT22;7375;46.072;14.470;2022-12-10T12:36:40;30.80;34.60
14577;DHT22;7375;46.072;14.470;2022-12-10T12:39:09;30.80;34.60
14577;DHT22;7375;46.072;14.470;2022-12-10T12:41:41;30.80;34.50
14577;DHT22;7375;46.072;14.470;2022-12-10T12:44:12;30.80;34.50
14577;DHT22;7375;46.072;14.470;2022-12-10T12:46:45;30.90;34.50
14577;DHT22;7375;46.072;14.470;2022-12-10T12:49:14;30.90;34.60
14577;DHT22;7375;46.072;14.470;2022-12-10T12:51:45;30.80;34.60
14577;DHT22;7375;46.072;14.470;2022-12-10T12:54:12;30.90;34.50
14577;DHT22;7375;46.072;14.470;2022-12-10T12:56:46;30.90;34.50
14577;DHT22;7375;46.072;14.470;2022-12-10T12:59:18;30.90;34.50
14577;DHT22;7375;46.072;14.470;2022-12-10T13:01:51;30.90;34.40
14577;DHT22;7375;46.072;14.470;2022-12-10T13:04:19;31.00;34.30
14577;DHT22;7375;46.072;14.470;2022-12-10T13:09:28;30.90;34.50
14577;DHT22;7375;46.072;14.470;2022-12-10T13:14:53;30.80;34.50
14577;DHT22;7375;46.072;14.470;2022-12-10T13:17:26;30.90;34.30
14577;DHT22;7375;46.072;14.470;2022-12-10T13:19:53;30.80;34.40
14577;DHT22;7375;46.072;14.470;2022-12-10T13:22:41;30.90;34.40
14577;DHT22;7375;46.072;14.470;2022-12-10T13:25:11;30.80;34.50
14577;DHT22;7375;46.072;14.470;2022-12-10T13:27:38;30.90;34.40
14577;DHT22;7375;46.072;14.470;2022-12-10T13:32:52;30.90;34.40
14577;DHT22;7375;46.072;14.470;2022-12-10T13:35:24;30.70;34.80
14577;DHT22;7375;46.072;14.470;2022-12-10T13:37:56;30.40;35.20
14577;DHT22;7375;46.072;14.470;2022-12-10T13:40:25;29.70;35.80
14577;DHT22;7375;46.072;14.470;2022-12-10T13:42:56;28.80;36.20
14577;DHT22;7375;46.072;14.470;2022-12-10T13:45:40;28.80;36.20
14577;DHT22;7375;46.072;14.470;2022-12-10T13:48:22;28.50;36.50
14577;DHT22;7375;46.072;14.470;2022-12-10T13:50:53;28.30;37.20
14577;DHT22;7375;46.072;14.470;2022-12-10T13:53:26;28.00;37.80
14577;DHT22;7375;46.072;14.470;2022-12-10T13:55:59;27.80;38.40
14577;DHT22;7375;46.072;14.470;2022-12-10T13:58:33;27.50;38.80
14577;DHT22;7375;46.072;14.470;2022-12-10T14:01:05;27.40;39.30
14577;DHT22;7375;46.072;14.470;2022-12-10T14:03:42;27.10;39.70
14577;DHT22;7375;46.072;14.470;2022-12-10T14:06:14;26.90;40.10
14577;DHT22;7375;46.072;14.470;2022-12-10T14:08:45;26.60;40.50
14577;DHT22;7375;46.072;14.470;2022-12-10T14:11:18;26.40;40.70
14577;DHT22;7375;46.072;14.470;2022-12-10T14:13:47;26.30;41.20
14577;DHT22;7375;46.072;14.470;2022-12-10T14:16:15;26.00;41.50
14577;DHT22;7375;46.072;14.470;2022-12-10T14:18:47;25.90;42.00
14577;DHT22;7375;46.072;14.470;2022-12-10T14:21:17;25.70;42.20
14577;DHT22;7375;46.072;14.470;2022-12-10T14:23:45;25.60;42.40
14577;DHT22;7375;46.072;14.470;2022-12-10T14:26:13;25.50;42.60
14577;DHT22;7375;46.072;14.470;2022-12-10T14:28:41;25.30;43.00
14577;DHT22;7375;46.072;14.470;2022-12-10T14:31:10;25.20;43.20
14577;DHT22;7375;46.072;14.470;2022-12-10T14:33:38;25.10;43.50
14577;DHT22;7375;46.072;14.470;2022-12-10T14:36:12;25.00;44.50
14577;DHT22;7375;46.072;14.470;2022-12-10T14:38:41;24.90;44.00
14577;DHT22;7375;46.072;14.470;2022-12-10T14:41:08;24.80;44.30
14577;DHT22;7375;46.072;14.470;2022-12-10T14:43:37;24.60;44.30
14577;DHT22;7375;46.072;14.470;2022-12-10T14:46:05;24.60;44.70
14577;DHT22;7375;46.072;14.470;2022-12-10T14:48:38;24.50;44.90
14577;DHT22;7375;46.072;14.470;2022-12-10T14:51:09;24.30;45.10
14577;DHT22;7375;46.072;14.470;2022-12-10T14:53:38;24.20;45.30
14577;DHT22;7375;46.072;14.470;2022-12-10T14:56:05;24.10;45.50
14577;DHT22;7375;46.072;14.470;2022-12-10T14:58:36;24.00;45.80
14577;DHT22;7375;46.072;14.470;2022-12-10T15:01:04;24.00;45.90
14577;DHT22;7375;46.072;14.470;2022-12-10T15:03:32;23.80;45.80
14577;DHT22;7375;46.072;14.470;2022-12-10T15:05:59;23.70;45.90
14577;DHT22;7375;46.072;14.470;2022-12-10T15:08:28;23.60;46.00
14577;DHT22;7375;46.072;14.470;2022-12-10T15:10:56;23.60;46.20
14577;DHT22;7375;46.072;14.470;2022-12-10T15:13:24;23.50;46.40
14577;DHT22;7375;46.072;14.470;2022-12-10T15:15:52;23.50;46.60
14577;DHT22;7375;46.072;14.470;2022-12-10T15:18:19;23.40;46.60
14577;DHT22;7375;46.072;14.470;2022-12-10T15:20:47;23.40;46.70
14577;DHT22;7375;46.072;14.470;2022-12-10T15:23:19;23.30;46.80
14577;DHT22;7375;46.072;14.470;2022-12-10T15:25:50;23.20;46.90
14577;DHT22;7375;46.072;14.470;2022-12-10T15:28:22;23.20;47.00
14577;DHT22;7375;46.072;14.470;2022-12-10T15:30:49;23.20;47.30
14577;DHT22;7375;46.072;14.470;2022-12-10T15:33:21;23.20;47.30
14577;DHT22;7375;46.072;14.470;2022-12-10T15:35:53;23.10;47.30
14577;DHT22;7375;46.072;14.470;2022-12-10T15:38:20;23.00;47.40
14577;DHT22;7375;46.072;14.470;2022-12-10T15:40:48;23.00;47.60
14577;DHT22;7375;46.072;14.470;2022-12-10T15:43:20;22.90;48.40
14577;DHT22;7375;46.072;14.470;2022-12-10T15:45:50;22.90;48.40
14577;DHT22;7375;46.072;14.470;2022-12-10T15:48:17;22.80;48.70
14577;DHT22;7375;46.072;14.470;2022-12-10T15:50:44;22.70;49.00
14577;DHT22;7375;46.072;14.470;2022-12-10T15:53:12;22.70;49.30
14577;DHT22;7375;46.072;14.470;2022-12-10T15:55:39;22.60;49.50